Berkeley, CA

3:57 PM PST on December 03, 2016 (GMT -0800)
Thousand Oaks | | Change Station

Elev 188 ft 37.89 °N, 122.28 °W | Updated 9 minutes ago

Partly Cloudy
Partly Cloudy
62.0 °F
Feels Like 62.0 °F
N
0.0
Wind Variable Wind from West

Today
High -- | Low -- °F
--% Chance of Precip.
Yesterday
High -- | Low -- °F
Precip. -- in
Pressure 30.19 in
Visibility 10.0 miles
Clouds Few 20000 ft
Dew Point 44 °F
Humidity 52%
Rainfall 0.00 in
Snow Depth Not available.
7:08 AM 4:49 PM
Waxing Crescent, 18% visible
METAR KOAK 032353Z 26006KT 10SM FEW200 16/08 A3018 RMK AO2 SLP221 T01560078 10167 20128 56014
Pressure 30.19 in
Visibility 10.0 miles
Clouds Few 20000 ft
Dew Point 44 °F
Humidity 52%
Rainfall 0.00 in
Snow Depth Not available.
7:08 AM 4:49 PM
Waxing Crescent, 18% visible
METAR KOAK 032353Z 26006KT 10SM FEW200 16/08 A3018 RMK AO2 SLP221 T01560078 10167 20128 56014

10-Day Weather Forecast

Almanac

Astronomy

Dec. 03, 2016 Rise Set
Actual Time
Civil Twilight
Nautical Twilight
Astronomical Twilight
Moon
Length of Visible Light
Length of Day
Tomorrow will be .
, % of the Moon is Illuminated

Today's Extremes

State Highs State Lows

Community

WunderPhotos

Upload Photos

1,955,536 photos uploaded!

WunderBlog® & News

Nearby

Air Quality

  Air Quality AQ Index Pollutant
Not available.

Snow Depth

Station Depth Elevation

Earthquake Activity

City Distance Mag. Time & Date
Minimum magnitude displayed is 2.5.

Coastal Water Temperatures

Place Temperature

Stations

Nearby Weather Stations

Station Location Temp. Windchill Dew Point Humidity Wind Precip. Elev Updated Type
                   

Watches & Warnings

There are currently no watches in effect.